sensor_id;sensor_type;location;lat;lon;timestamp;pressure;altitude;pressure_sealevel;temperature;humidity
67842;BME280;54642;59.126;37.876;2023-04-03T00:01:38;99957.88;;;4.33;75.30
67842;BME280;54642;59.126;37.876;2023-04-03T00:04:05;99871.38;;;3.78;75.59
67842;BME280;54642;59.126;37.876;2023-04-03T00:06:31;99962.94;;;4.30;75.05
67842;BME280;54642;59.126;37.876;2023-04-03T00:08:58;99967.28;;;4.34;75.17
67842;BME280;54642;59.126;37.876;2023-04-03T00:11:24;99974.69;;;4.17;75.59
67842;BME280;54642;59.126;37.876;2023-04-03T00:13:51;99915.75;;;3.76;75.61
67842;BME280;54642;59.126;37.876;2023-04-03T00:16:17;99929.09;;;3.61;75.70
67842;BME280;54642;59.126;37.876;2023-04-03T00:18:43;99966.84;;;4.11;76.27
67842;BME280;54642;59.126;37.876;2023-04-03T00:21:12;99949.53;;;3.99;75.91
67842;BME280;54642;59.126;37.876;2023-04-03T00:23:38;99914.97;;;3.80;76.18
67842;BME280;54642;59.126;37.876;2023-04-03T00:26:04;99986.03;;;4.30;76.00
67842;BME280;54642;59.126;37.876;2023-04-03T00:28:30;99992.03;;;4.30;75.88
67842;BME280;54642;59.126;37.876;2023-04-03T00:30:56;99879.75;;;3.71;75.58
67842;BME280;54642;59.126;37.876;2023-04-03T00:33:22;99947.09;;;4.05;75.63
67842;BME280;54642;59.126;37.876;2023-04-03T00:35:50;99926.25;;;3.88;75.62
67842;BME280;54642;59.126;37.876;2023-04-03T00:38:17;99912.97;;;3.65;75.91
67842;BME280;54642;59.126;37.876;2023-04-03T00:40:45;99986.63;;;4.16;75.56
67842;BME280;54642;59.126;37.876;2023-04-03T00:43:14;99972.28;;;4.26;75.61
67842;BME280;54642;59.126;37.876;2023-04-03T00:45:46;99947.22;;;4.13;75.32
67842;BME280;54642;59.126;37.876;2023-04-03T00:48:28;99991.31;;;4.37;75.52
67842;BME280;54642;59.126;37.876;2023-04-03T00:50:57;99985.69;;;4.13;75.55
67842;BME280;54642;59.126;37.876;2023-04-03T00:53:31;99969.75;;;3.85;75.75
67842;BME280;54642;59.126;37.876;2023-04-03T00:55:59;99904.25;;;3.57;75.92
67842;BME280;54642;59.126;37.876;2023-04-03T00:58:33;99973.50;;;4.01;76.12
67842;BME280;54642;59.126;37.876;2023-04-03T01:01:07;99960.69;;;4.01;75.85
67842;BME280;54642;59.126;37.876;2023-04-03T01:03:33;99920.59;;;3.62;75.76
67842;BME280;54642;59.126;37.876;2023-04-03T01:06:02;99910.78;;;3.42;76.18
67842;BME280;54642;59.126;37.876;2023-04-03T01:08:28;99974.75;;;3.79;76.35
67842;BME280;54642;59.126;37.876;2023-04-03T01:10:55;99941.19;;;3.68;76.29
67842;BME280;54642;59.126;37.876;2023-04-03T01:13:32;99971.50;;;3.88;76.24
67842;BME280;54642;59.126;37.876;2023-04-03T01:16:05;100017.31;;;4.12;75.98
67842;BME280;54642;59.126;37.876;2023-04-03T01:18:32;99850.72;;;3.28;75.92
67842;BME280;54642;59.126;37.876;2023-04-03T01:24:07;99850.44;;;3.16;75.81
67842;BME280;54642;59.126;37.876;2023-04-03T01:26:35;99981.66;;;3.81;75.95
67842;BME280;54642;59.126;37.876;2023-04-03T01:29:02;99910.06;;;3.10;76.20
67842;BME280;54642;59.126;37.876;2023-04-03T01:31:56;99963.69;;;3.40;76.50
67842;BME280;54642;59.126;37.876;2023-04-03T01:34:23;100011.78;;;3.54;76.52
67842;BME280;54642;59.126;37.876;2023-04-03T01:36:51;100003.06;;;3.46;76.79
67842;BME280;54642;59.126;37.876;2023-04-03T01:39:18;99974.25;;;3.18;76.86
67842;BME280;54642;59.126;37.876;2023-04-03T01:41:44;99957.59;;;2.99;77.02
67842;BME280;54642;59.126;37.876;2023-04-03T01:44:16;100023.44;;;3.41;76.92
67842;BME280;54642;59.126;37.876;2023-04-03T01:46:42;99972.47;;;3.14;77.03
67842;BME280;54642;59.126;37.876;2023-04-03T01:49:09;99995.88;;;3.29;77.04
67842;BME280;54642;59.126;37.876;2023-04-03T01:51:35;99996.56;;;3.23;76.78
67842;BME280;54642;59.126;37.876;2023-04-03T01:54:01;99996.56;;;3.22;77.03
67842;BME280;54642;59.126;37.876;2023-04-03T01:56:27;100027.63;;;3.37;76.93
67842;BME280;54642;59.126;37.876;2023-04-03T01:58:54;99942.00;;;2.88;76.85
67842;BME280;54642;59.126;37.876;2023-04-03T02:01:20;100031.88;;;3.35;77.16
67842;BME280;54642;59.126;37.876;2023-04-03T02:03:47;99921.53;;;2.90;76.81
67842;BME280;54642;59.126;37.876;2023-04-03T02:06:13;99999.41;;;3.36;76.65
67842;BME280;54642;59.126;37.876;2023-04-03T02:08:39;100029.56;;;3.46;76.69
67842;BME280;54642;59.126;37.876;2023-04-03T02:11:05;99960.25;;;3.03;76.80
67842;BME280;54642;59.126;37.876;2023-04-03T02:13:32;100034.69;;;3.46;76.82
67842;BME280;54642;59.126;37.876;2023-04-03T02:15:59;99939.66;;;2.97;77.33
67842;BME280;54642;59.126;37.876;2023-04-03T02:18:25;99993.53;;;3.38;76.75
67842;BME280;54642;59.126;37.876;2023-04-03T02:20:51;99992.78;;;3.44;76.75
67842;BME280;54642;59.126;37.876;2023-04-03T02:23:17;100034.41;;;3.72;76.84
67842;BME280;54642;59.126;37.876;2023-04-03T02:25:43;100002.75;;;3.70;76.77
67842;BME280;54642;59.126;37.876;2023-04-03T02:28:09;100015.97;;;3.88;76.48
67842;BME280;54642;59.126;37.876;2023-04-03T02:30:35;100034.19;;;4.02;76.31
67842;BME280;54642;59.126;37.876;2023-04-03T02:33:01;99931.22;;;3.41;76.29
67842;BME280;54642;59.126;37.876;2023-04-03T02:35:27;99951.19;;;3.56;76.32
67842;BME280;54642;59.126;37.876;2023-04-03T02:37:56;100019.63;;;3.99;76.02
67842;BME280;54642;59.126;37.876;2023-04-03T02:40:22;100036.06;;;4.09;76.02
67842;BME280;54642;59.126;37.876;2023-04-03T02:42:49;100039.28;;;3.99;76.01
67842;BME280;54642;59.126;37.876;2023-04-03T02:45:15;100045.06;;;3.90;76.46
67842;BME280;54642;59.126;37.876;2023-04-03T02:47:41;100050.19;;;3.90;76.19
67842;BME280;54642;59.126;37.876;2023-04-03T02:50:09;99877.31;;;2.97;76.45
67842;BME280;54642;59.126;37.876;2023-04-03T02:52:35;100025.06;;;3.75;76.28
67842;BME280;54642;59.126;37.876;2023-04-03T02:55:01;99967.75;;;3.32;76.32
67842;BME280;54642;59.126;37.876;2023-04-03T02:57:27;99963.16;;;3.17;76.33
67842;BME280;54642;59.126;37.876;2023-04-03T02:59:53;100026.13;;;3.46;76.94
67842;BME280;54642;59.126;37.876;2023-04-03T03:02:19;100059.03;;;3.65;76.98
67842;BME280;54642;59.126;37.876;2023-04-03T03:04:45;100055.91;;;3.78;76.84
67842;BME280;54642;59.126;37.876;2023-04-03T03:07:11;100039.72;;;3.79;76.89
67842;BME280;54642;59.126;37.876;2023-04-03T03:09:37;100055.50;;;3.98;76.32
67842;BME280;54642;59.126;37.876;2023-04-03T03:12:04;99925.78;;;3.26;76.25
67842;BME280;54642;59.126;37.876;2023-04-03T03:14:30;99998.75;;;3.82;76.17
67842;BME280;54642;59.126;37.876;2023-04-03T03:16:56;100063.59;;;4.18;76.10
67842;BME280;54642;59.126;37.876;2023-04-03T03:19:22;100036.50;;;3.90;76.22
67842;BME280;54642;59.126;37.876;2023-04-03T03:21:48;100002.09;;;3.78;75.84
67842;BME280;54642;59.126;37.876;2023-04-03T03:24:14;100061.66;;;4.06;76.44
67842;BME280;54642;59.126;37.876;2023-04-03T03:26:41;100063.91;;;3.92;76.46
67842;BME280;54642;59.126;37.876;2023-04-03T03:29:07;100030.84;;;3.67;76.15
67842;BME280;54642;59.126;37.876;2023-04-03T03:31:33;100071.28;;;3.78;76.66
67842;BME280;54642;59.126;37.876;2023-04-03T03:33:59;100057.38;;;3.67;76.72
67842;BME280;54642;59.126;37.876;2023-04-03T03:36:25;100092.78;;;3.84;76.74
67842;BME280;54642;59.126;37.876;2023-04-03T03:38:51;100068.03;;;3.86;76.51
67842;BME280;54642;59.126;37.876;2023-04-03T03:41:17;100078.38;;;3.89;76.68
67842;BME280;54642;59.126;37.876;2023-04-03T03:43:44;100079.25;;;3.91;76.70
67842;BME280;54642;59.126;37.876;2023-04-03T03:46:12;100093.13;;;3.99;76.73
67842;BME280;54642;59.126;37.876;2023-04-03T03:48:38;100087.25;;;4.05;76.71
67842;BME280;54642;59.126;37.876;2023-04-03T03:51:04;100082.25;;;4.11;76.30
67842;BME280;54642;59.126;37.876;2023-04-03T03:53:34;100043.28;;;3.88;76.27
67842;BME280;54642;59.126;37.876;2023-04-03T03:56:05;100080.06;;;3.90;76.17
67842;BME280;54642;59.126;37.876;2023-04-03T03:58:32;100071.00;;;3.66;76.74
67842;BME280;54642;59.126;37.876;2023-04-03T04:01:05;100080.94;;;3.52;76.81
67842;BME280;54642;59.126;37.876;2023-04-03T04:03:33;100051.06;;;3.18;76.74
67842;BME280;54642;59.126;37.876;2023-04-03T04:05:59;100032.06;;;3.08;76.95
67842;BME280;54642;59.126;37.876;2023-04-03T04:08:26;100096.13;;;3.44;77.06
67842;BME280;54642;59.126;37.876;2023-04-03T04:10:52;100093.53;;;3.43;77.16
67842;BME280;54642;59.126;37.876;2023-04-03T04:13:18;100069.78;;;3.15;77.43
67842;BME280;54642;59.126;37.876;2023-04-03T04:15:45;100039.66;;;3.05;77.21
67842;BME280;54642;59.126;37.876;2023-04-03T04:18:11;99986.22;;;2.84;77.16
67842;BME280;54642;59.126;37.876;2023-04-03T04:20:39;100081.50;;;3.40;77.41
67842;BME280;54642;59.126;37.876;2023-04-03T04:23:05;100069.78;;;3.50;77.33
67842;BME280;54642;59.126;37.876;2023-04-03T04:25:32;100081.09;;;3.58;77.19
67842;BME280;54642;59.126;37.876;2023-04-03T04:27:58;100090.47;;;3.58;77.23
67842;BME280;54642;59.126;37.876;2023-04-03T04:30:24;100019.91;;;3.36;76.78
67842;BME280;54642;59.126;37.876;2023-04-03T04:32:50;100076.00;;;3.60;76.79
67842;BME280;54642;59.126;37.876;2023-04-03T04:35:17;100063.41;;;3.33;76.97
67842;BME280;54642;59.126;37.876;2023-04-03T04:37:46;100079.69;;;3.35;77.23
67842;BME280;54642;59.126;37.876;2023-04-03T04:40:12;100065.41;;;3.11;77.10
67842;BME280;54642;59.126;37.876;2023-04-03T04:42:38;100084.88;;;3.39;77.19
67842;BME280;54642;59.126;37.876;2023-04-03T04:45:06;100098.84;;;3.52;77.54
67842;BME280;54642;59.126;37.876;2023-04-03T04:47:33;100094.63;;;3.53;77.40
67842;BME280;54642;59.126;37.876;2023-04-03T04:49:59;100063.50;;;3.37;77.46
67842;BME280;54642;59.126;37.876;2023-04-03T04:52:26;100083.22;;;3.41;77.45
67842;BME280;54642;59.126;37.876;2023-04-03T04:54:52;100104.97;;;3.57;77.14
67842;BME280;54642;59.126;37.876;2023-04-03T04:57:18;100094.50;;;3.48;77.42
67842;BME280;54642;59.126;37.876;2023-04-03T04:59:45;100115.22;;;3.57;77.67
67842;BME280;54642;59.126;37.876;2023-04-03T05:02:11;100058.97;;;3.26;77.37
67842;BME280;54642;59.126;37.876;2023-04-03T05:04:39;100110.91;;;3.55;77.59
67842;BME280;54642;59.126;37.876;2023-04-03T05:07:11;100020.63;;;2.94;77.73
67842;BME280;54642;59.126;37.876;2023-04-03T05:09:37;100096.13;;;3.44;77.34
67842;BME280;54642;59.126;37.876;2023-04-03T05:12:04;100051.75;;;3.11;77.36
67842;BME280;54642;59.126;37.876;2023-04-03T05:14:36;100134.47;;;3.76;77.28
67842;BME280;54642;59.126;37.876;2023-04-03T05:17:05;100039.94;;;3.16;77.11
67842;BME280;54642;59.126;37.876;2023-04-03T05:19:35;99982.81;;;2.83;76.97
67842;BME280;54642;59.126;37.876;2023-04-03T05:22:02;100066.81;;;3.33;77.22
67842;BME280;54642;59.126;37.876;2023-04-03T05:24:29;100108.38;;;3.56;77.31
67842;BME280;54642;59.126;37.876;2023-04-03T05:26:55;100124.94;;;3.71;77.32
67842;BME280;54642;59.126;37.876;2023-04-03T05:29:21;100045.28;;;3.25;77.53
67842;BME280;54642;59.126;37.876;2023-04-03T05:31:51;100138.88;;;3.82;77.25
67842;BME280;54642;59.126;37.876;2023-04-03T05:34:17;100142.16;;;3.76;77.33
67842;BME280;54642;59.126;37.876;2023-04-03T05:36:45;100102.22;;;3.50;77.42
67842;BME280;54642;59.126;37.876;2023-04-03T05:39:12;100131.66;;;3.66;77.44
67842;BME280;54642;59.126;37.876;2023-04-03T05:41:41;100153.41;;;3.81;77.52
67842;BME280;54642;59.126;37.876;2023-04-03T05:44:07;100143.03;;;3.77;77.51
67842;BME280;54642;59.126;37.876;2023-04-03T05:46:33;100138.78;;;3.77;77.50
67842;BME280;54642;59.126;37.876;2023-04-03T05:49:03;100168.91;;;3.88;77.42
67842;BME280;54642;59.126;37.876;2023-04-03T05:51:35;100066.56;;;3.22;77.16
67842;BME280;54642;59.126;37.876;2023-04-03T05:54:16;100061.47;;;3.24;77.24
67842;BME280;54642;59.126;37.876;2023-04-03T05:56:43;100165.44;;;3.86;77.44
67842;BME280;54642;59.126;37.876;2023-04-03T05:59:10;100139.53;;;3.73;77.17
67842;BME280;54642;59.126;37.876;2023-04-03T06:01:37;100115.28;;;3.60;77.57
67842;BME280;54642;59.126;37.876;2023-04-03T06:04:03;100155.19;;;3.86;77.31
67842;BME280;54642;59.126;37.876;2023-04-03T06:09:21;100183.41;;;3.86;77.46
67842;BME280;54642;59.126;37.876;2023-04-03T06:11:48;100177.44;;;3.87;77.53
67842;BME280;54642;59.126;37.876;2023-04-03T06:14:15;100174.00;;;3.85;77.65
67842;BME280;54642;59.126;37.876;2023-04-03T06:16:41;100158.34;;;3.75;77.79
67842;BME280;54642;59.126;37.876;2023-04-03T06:19:08;100170.56;;;3.86;77.69
67842;BME280;54642;59.126;37.876;2023-04-03T06:21:38;100187.84;;;3.93;77.74
67842;BME280;54642;59.126;37.876;2023-04-03T06:24:05;100111.88;;;3.60;77.54
67842;BME280;54642;59.126;37.876;2023-04-03T06:26:32;100160.53;;;3.95;77.34
67842;BME280;54642;59.126;37.876;2023-04-03T06:28:58;100160.63;;;3.98;77.67
67842;BME280;54642;59.126;37.876;2023-04-03T06:31:25;100133.78;;;3.84;77.60
67842;BME280;54642;59.126;37.876;2023-04-03T06:33:51;100165.19;;;4.11;77.63
67842;BME280;54642;59.126;37.876;2023-04-03T06:36:19;100136.34;;;3.84;77.45
67842;BME280;54642;59.126;37.876;2023-04-03T06:38:47;100051.66;;;3.42;77.59
67842;BME280;54642;59.126;37.876;2023-04-03T06:41:13;100114.06;;;3.79;77.45
67842;BME280;54642;59.126;37.876;2023-04-03T06:43:39;100179.84;;;4.15;77.54
67842;BME280;54642;59.126;37.876;2023-04-03T06:46:05;100145.41;;;4.06;77.80
67842;BME280;54642;59.126;37.876;2023-04-03T06:48:31;100156.78;;;4.18;77.33
67842;BME280;54642;59.126;37.876;2023-04-03T06:50:57;100169.03;;;4.30;77.46
67842;BME280;54642;59.126;37.876;2023-04-03T06:53:23;100156.72;;;4.14;77.48
67842;BME280;54642;59.126;37.876;2023-04-03T06:55:49;100195.66;;;4.35;77.30
67842;BME280;54642;59.126;37.876;2023-04-03T06:58:16;100187.84;;;4.31;77.44
67842;BME280;54642;59.126;37.876;2023-04-03T07:00:42;100200.75;;;4.34;77.61
67842;BME280;54642;59.126;37.876;2023-04-03T07:03:08;100200.75;;;4.34;77.54
67842;BME280;54642;59.126;37.876;2023-04-03T07:05:34;100160.69;;;4.01;77.37
67842;BME280;54642;59.126;37.876;2023-04-03T07:08:00;100207.63;;;4.35;77.43
67842;BME280;54642;59.126;37.876;2023-04-03T07:10:26;100197.19;;;4.26;77.63
67842;BME280;54642;59.126;37.876;2023-04-03T07:12:52;100203.94;;;4.24;77.66
67842;BME280;54642;59.126;37.876;2023-04-03T07:15:18;100212.69;;;4.32;77.63
67842;BME280;54642;59.126;37.876;2023-04-03T07:17:44;100183.94;;;4.09;77.46
67842;BME280;54642;59.126;37.876;2023-04-03T07:20:11;100178.97;;;4.16;77.98
67842;BME280;54642;59.126;37.876;2023-04-03T07:22:37;100222.38;;;4.45;77.57
67842;BME280;54642;59.126;37.876;2023-04-03T07:25:04;100225.81;;;4.44;77.60
67842;BME280;54642;59.126;37.876;2023-04-03T07:27:31;100126.28;;;3.91;77.60
67842;BME280;54642;59.126;37.876;2023-04-03T07:29:57;100213.06;;;4.47;77.61
67842;BME280;54642;59.126;37.876;2023-04-03T07:32:23;100206.75;;;4.34;77.60
67842;BME280;54642;59.126;37.876;2023-04-03T07:34:49;100217.47;;;4.54;77.49
67842;BME280;54642;59.126;37.876;2023-04-03T07:37:15;100223.50;;;4.56;77.34
67842;BME280;54642;59.126;37.876;2023-04-03T07:39:44;100222.53;;;4.51;77.48
67842;BME280;54642;59.126;37.876;2023-04-03T07:42:10;100219.81;;;4.45;77.38
67842;BME280;54642;59.126;37.876;2023-04-03T07:44:37;100157.44;;;4.08;77.32
67842;BME280;54642;59.126;37.876;2023-04-03T07:47:03;100225.81;;;4.44;77.44
67842;BME280;54642;59.126;37.876;2023-04-03T07:49:29;100215.50;;;4.43;77.64
67842;BME280;54642;59.126;37.876;2023-04-03T07:51:55;100148.84;;;4.08;77.42
67842;BME280;54642;59.126;37.876;2023-04-03T07:54:21;100251.91;;;4.64;77.56
67842;BME280;54642;59.126;37.876;2023-04-03T07:56:47;100154.31;;;4.22;77.57
67842;BME280;54642;59.126;37.876;2023-04-03T07:59:13;100234.09;;;4.72;77.44
67842;BME280;54642;59.126;37.876;2023-04-03T08:01:39;100164.81;;;4.32;77.24
67842;BME280;54642;59.126;37.876;2023-04-03T08:04:05;100149.31;;;4.28;77.37
67842;BME280;54642;59.126;37.876;2023-04-03T08:06:32;100158.00;;;4.33;77.55
67842;BME280;54642;59.126;37.876;2023-04-03T08:09:02;100173.69;;;4.48;77.50
67842;BME280;54642;59.126;37.876;2023-04-03T08:11:29;100213.63;;;4.75;77.34
67842;BME280;54642;59.126;37.876;2023-04-03T08:13:56;100202.25;;;4.62;77.18
67842;BME280;54642;59.126;37.876;2023-04-03T08:16:23;100205.75;;;4.66;77.44
67842;BME280;54642;59.126;37.876;2023-04-03T08:18:52;100218.56;;;4.66;77.23
67842;BME280;54642;59.126;37.876;2023-04-03T08:21:19;100236.03;;;4.82;77.52
67842;BME280;54642;59.126;37.876;2023-04-03T08:23:48;100238.59;;;4.82;77.29
67842;BME280;54642;59.126;37.876;2023-04-03T08:26:18;100258.28;;;4.82;77.42
67842;BME280;54642;59.126;37.876;2023-04-03T08:28:44;100260.06;;;4.86;77.52
67842;BME280;54642;59.126;37.876;2023-04-03T08:31:14;100215.97;;;4.64;77.48
67842;BME280;54642;59.126;37.876;2023-04-03T08:33:41;100220.25;;;4.64;77.33
67842;BME280;54642;59.126;37.876;2023-04-03T08:36:17;100252.38;;;4.86;77.74
67842;BME280;54642;59.126;37.876;2023-04-03T08:38:43;100258.34;;;4.85;77.62
67842;BME280;54642;59.126;37.876;2023-04-03T08:43:58;100253.06;;;4.78;77.58
67842;BME280;54642;59.126;37.876;2023-04-03T08:49:39;100244.69;;;4.87;77.38
67842;BME280;54642;59.126;37.876;2023-04-03T08:52:14;100273.34;;;5.06;77.49
67842;BME280;54642;59.126;37.876;2023-04-03T08:54:49;100277.75;;;5.13;77.27
67842;BME280;54642;59.126;37.876;2023-04-03T08:57:17;100289.81;;;5.15;77.43
67842;BME280;54642;59.126;37.876;2023-04-03T08:59:45;100283.69;;;5.09;77.39
67842;BME280;54642;59.126;37.876;2023-04-03T09:02:23;100298.38;;;5.16;77.59
67842;BME280;54642;59.126;37.876;2023-04-03T09:04:50;100284.50;;;5.08;77.35
67842;BME280;54642;59.126;37.876;2023-04-03T09:07:25;100275.84;;;5.03;77.52
67842;BME280;54642;59.126;37.876;2023-04-03T09:09:56;100300.94;;;5.16;77.50
67842;BME280;54642;59.126;37.876;2023-04-03T09:12:37;100293.31;;;5.19;77.50
67842;BME280;54642;59.126;37.876;2023-04-03T09:15:15;100301.06;;;5.21;77.25
67842;BME280;54642;59.126;37.876;2023-04-03T09:17:58;100301.66;;;5.09;77.40
67842;BME280;54642;59.126;37.876;2023-04-03T09:26:03;100318.94;;;5.16;77.65
67842;BME280;54642;59.126;37.876;2023-04-03T09:28:35;100315.31;;;5.08;77.61
67842;BME280;54642;59.126;37.876;2023-04-03T09:31:17;100312.09;;;5.16;77.83
67842;BME280;54642;59.126;37.876;2023-04-03T09:33:44;100268.72;;;4.89;77.54
67842;BME280;54642;59.126;37.876;2023-04-03T09:36:11;100319.97;;;5.24;77.55
67842;BME280;54642;59.126;37.876;2023-04-03T09:38:37;100300.81;;;5.08;77.45
67842;BME280;54642;59.126;37.876;2023-04-03T09:41:07;100273.91;;;4.92;77.68
67842;BME280;54642;59.126;37.876;2023-04-03T09:43:38;100309.47;;;5.13;77.56
67842;BME280;54642;59.126;37.876;2023-04-03T09:46:26;100273.00;;;4.89;77.67
67842;BME280;54642;59.126;37.876;2023-04-03T09:48:59;100308.59;;;5.13;77.64
67842;BME280;54642;59.126;37.876;2023-04-03T09:51:30;100315.41;;;5.11;77.85
67842;BME280;54642;59.126;37.876;2023-04-03T09:53:57;100312.97;;;5.19;77.94
67842;BME280;54642;59.126;37.876;2023-04-03T09:56:29;100313.94;;;5.24;77.89
67842;BME280;54642;59.126;37.876;2023-04-03T10:01:35;100311.47;;;5.28;77.79
67842;BME280;54642;59.126;37.876;2023-04-03T10:04:08;100312.53;;;5.37;77.63
67842;BME280;54642;59.126;37.876;2023-04-03T10:06:55;100309.09;;;5.38;77.52
67842;BME280;54642;59.126;37.876;2023-04-03T10:09:23;100332.25;;;5.39;77.49
67842;BME280;54642;59.126;37.876;2023-04-03T10:11:59;100289.66;;;5.09;77.67
67842;BME280;54642;59.126;37.876;2023-04-03T10:14:30;100295.66;;;5.08;77.81
67842;BME280;54642;59.126;37.876;2023-04-03T10:17:09;100326.09;;;5.31;77.70
67842;BME280;54642;59.126;37.876;2023-04-03T10:23:55;100329.63;;;5.36;77.88
67842;BME280;54642;59.126;37.876;2023-04-03T10:41:40;100333.19;;;5.43;78.25
67842;BME280;54642;59.126;37.876;2023-04-03T10:47:14;100323.81;;;5.45;77.95
67842;BME280;54642;59.126;37.876;2023-04-03T10:55:24;100340.34;;;5.58;78.09
67842;BME280;54642;59.126;37.876;2023-04-03T10:57:57;100336.91;;;5.57;78.00
67842;BME280;54642;59.126;37.876;2023-04-03T11:00:35;100342.13;;;5.60;78.24
67842;BME280;54642;59.126;37.876;2023-04-03T11:03:41;100344.69;;;5.60;78.14
67842;BME280;54642;59.126;37.876;2023-04-03T11:06:11;100335.88;;;5.47;77.99
67842;BME280;54642;59.126;37.876;2023-04-03T11:11:26;100339.16;;;5.40;78.27
67842;BME280;54642;59.126;37.876;2023-04-03T11:14:03;100325.97;;;5.25;78.43
67842;BME280;54642;59.126;37.876;2023-04-03T11:16:36;100352.00;;;5.40;78.34
67842;BME280;54642;59.126;37.876;2023-04-03T11:19:20;100352.84;;;5.41;78.67
67842;BME280;54642;59.126;37.876;2023-04-03T11:22:09;100349.44;;;5.40;78.56
67842;BME280;54642;59.126;37.876;2023-04-03T11:24:39;100317.25;;;5.18;78.48
67842;BME280;54642;59.126;37.876;2023-04-03T11:27:20;100353.81;;;5.46;78.44
67842;BME280;54642;59.126;37.876;2023-04-03T11:29:49;100343.59;;;5.47;78.36
67842;BME280;54642;59.126;37.876;2023-04-03T11:35:07;100344.34;;;5.43;78.68
67842;BME280;54642;59.126;37.876;2023-04-03T11:37:47;100336.59;;;5.42;78.69
67842;BME280;54642;59.126;37.876;2023-04-03T11:40:23;100341.78;;;5.45;78.76
67842;BME280;54642;59.126;37.876;2023-04-03T11:43:04;100339.38;;;5.51;78.81
67842;BME280;54642;59.126;37.876;2023-04-03T11:46:06;100347.88;;;5.48;78.54
67842;BME280;54642;59.126;37.876;2023-04-03T11:51:37;100328.75;;;5.35;78.87
67842;BME280;54642;59.126;37.876;2023-04-03T11:53:48;100340.78;;;5.38;78.79
67842;BME280;54642;59.126;37.876;2023-04-03T12:01:49;100348.94;;;5.58;78.72
67842;BME280;54642;59.126;37.876;2023-04-03T12:04:17;100300.38;;;5.29;78.62
67842;BME280;54642;59.126;37.876;2023-04-03T12:07:00;100345.44;;;5.54;78.80
67842;BME280;54642;59.126;37.876;2023-04-03T12:09:34;100350.38;;;5.44;78.92
67842;BME280;54642;59.126;37.876;2023-04-03T12:12:28;100359.00;;;5.49;78.95
67842;BME280;54642;59.126;37.876;2023-04-03T12:14:54;100368.41;;;5.47;78.82
67842;BME280;54642;59.126;37.876;2023-04-03T12:17:27;100367.56;;;5.48;79.07
67842;BME280;54642;59.126;37.876;2023-04-03T12:19:54;100370.16;;;5.48;79.16
67842;BME280;54642;59.126;37.876;2023-04-03T12:22:20;100371.84;;;5.47;78.93
67842;BME280;54642;59.126;37.876;2023-04-03T12:24:51;100367.50;;;5.45;79.07
67842;BME280;54642;59.126;37.876;2023-04-03T12:27:44;100374.50;;;5.52;79.11
67842;BME280;54642;59.126;37.876;2023-04-03T12:30:19;100372.78;;;5.52;78.94
67842;BME280;54642;59.126;37.876;2023-04-03T12:35:29;100371.84;;;5.49;78.98
67842;BME280;54642;59.126;37.876;2023-04-03T12:38:25;100381.22;;;5.45;79.19
67842;BME280;54642;59.126;37.876;2023-04-03T12:41:23;100336.91;;;5.16;79.30
67842;BME280;54642;59.126;37.876;2023-04-03T12:46:45;100335.13;;;5.12;79.15
67842;BME280;54642;59.126;37.876;2023-04-03T12:52:06;100376.81;;;5.40;79.25
67842;BME280;54642;59.126;37.876;2023-04-03T12:54:43;100311.00;;;5.05;79.22
67842;BME280;54642;59.126;37.876;2023-04-03T12:57:27;100381.22;;;5.44;79.35
67842;BME280;54642;59.126;37.876;2023-04-03T12:59:53;100335.25;;;5.18;79.22
67842;BME280;54642;59.126;37.876;2023-04-03T13:02:31;100379.56;;;5.49;79.21
67842;BME280;54642;59.126;37.876;2023-04-03T13:05:09;100368.28;;;5.41;79.20
67842;BME280;54642;59.126;37.876;2023-04-03T13:07:39;100374.16;;;5.35;79.32
67842;BME280;54642;59.126;37.876;2023-04-03T13:12:47;100369.84;;;5.34;79.26
67842;BME280;54642;59.126;37.876;2023-04-03T13:15:25;100386.31;;;5.42;79.59
67842;BME280;54642;59.126;37.876;2023-04-03T13:17:52;100377.72;;;5.42;79.31
67842;BME280;54642;59.126;37.876;2023-04-03T13:20:26;100382.00;;;5.41;79.35
67842;BME280;54642;59.126;37.876;2023-04-03T13:25:25;100385.47;;;5.43;79.56
67842;BME280;54642;59.126;37.876;2023-04-03T13:27:53;100372.53;;;5.39;79.47
67842;BME280;54642;59.126;37.876;2023-04-03T13:30:23;100384.53;;;5.40;79.45
67842;BME280;54642;59.126;37.876;2023-04-03T13:32:50;100381.09;;;5.39;79.62
67842;BME280;54642;59.126;37.876;2023-04-03T13:35:36;100387.13;;;5.41;79.58
67842;BME280;54642;59.126;37.876;2023-04-03T13:40:54;100396.47;;;5.38;79.69
67842;BME280;54642;59.126;37.876;2023-04-03T13:43:25;100389.53;;;5.33;79.61
67842;BME280;54642;59.126;37.876;2023-04-03T13:46:02;100391.31;;;5.36;79.66
67842;BME280;54642;59.126;37.876;2023-04-03T13:48:45;100337.38;;;4.98;79.70
67842;BME280;54642;59.126;37.876;2023-04-03T13:53:54;100389.47;;;5.30;79.77
67842;BME280;54642;59.126;37.876;2023-04-03T13:56:35;100398.97;;;5.34;79.76
67842;BME280;54642;59.126;37.876;2023-04-03T13:59:20;100379.09;;;5.26;79.62
67842;BME280;54642;59.126;37.876;2023-04-03T14:04:44;100390.56;;;5.40;79.81
67842;BME280;54642;59.126;37.876;2023-04-03T14:07:15;100394.75;;;5.37;79.63
67842;BME280;54642;59.126;37.876;2023-04-03T14:09:42;100395.66;;;5.39;79.86
67842;BME280;54642;59.126;37.876;2023-04-03T14:12:15;100400.84;;;5.42;79.80
67842;BME280;54642;59.126;37.876;2023-04-03T14:14:44;100366.16;;;5.21;79.68
67842;BME280;54642;59.126;37.876;2023-04-03T14:17:21;100316.50;;;4.83;79.50
67842;BME280;54642;59.126;37.876;2023-04-03T14:19:49;100389.47;;;5.30;79.69
67842;BME280;54642;59.126;37.876;2023-04-03T14:22:19;100363.44;;;5.15;79.75
67842;BME280;54642;59.126;37.876;2023-04-03T14:24:48;100399.09;;;5.39;79.69
67842;BME280;54642;59.126;37.876;2023-04-03T14:27:21;100409.25;;;5.34;79.87
67842;BME280;54642;59.126;37.876;2023-04-03T14:29:49;100408.44;;;5.35;79.85